sensor_id;sensor_type;location;lat;lon;timestamp;P1;durP1;ratioP1;P2;durP2;ratioP2
23304;SDS011;11821;51.456;8.844;2023-08-17T00:00:55;9.90;;;6.38;;
23304;SDS011;11821;51.456;8.844;2023-08-17T00:03:22;10.27;;;6.68;;
23304;SDS011;11821;51.456;8.844;2023-08-17T00:05:49;8.43;;;6.63;;
23304;SDS011;11821;51.456;8.844;2023-08-17T00:08:15;11.90;;;5.75;;
23304;SDS011;11821;51.456;8.844;2023-08-17T00:10:42;8.32;;;6.00;;
23304;SDS011;11821;51.456;8.844;2023-08-17T00:13:09;11.07;;;6.80;;
23304;SDS011;11821;51.456;8.844;2023-08-17T00:15:36;7.18;;;5.57;;
23304;SDS011;11821;51.456;8.844;2023-08-17T00:18:02;5.03;;;4.50;;
23304;SDS011;11821;51.456;8.844;2023-08-17T00:20:29;5.25;;;4.60;;
23304;SDS011;11821;51.456;8.844;2023-08-17T00:22:56;9.02;;;6.43;;
23304;SDS011;11821;51.456;8.844;2023-08-17T00:25:22;11.40;;;6.57;;
23304;SDS011;11821;51.456;8.844;2023-08-17T00:27:49;9.30;;;6.47;;
23304;SDS011;11821;51.456;8.844;2023-08-17T00:30:16;9.70;;;6.68;;
23304;SDS011;11821;51.456;8.844;2023-08-17T00:32:43;5.97;;;4.82;;
23304;SDS011;11821;51.456;8.844;2023-08-17T00:35:11;7.88;;;5.97;;
23304;SDS011;11821;51.456;8.844;2023-08-17T00:37:37;7.05;;;6.35;;
23304;SDS011;11821;51.456;8.844;2023-08-17T00:40:07;13.10;;;8.00;;
23304;SDS011;11821;51.456;8.844;2023-08-17T00:42:34;10.43;;;6.03;;
23304;SDS011;11821;51.456;8.844;2023-08-17T00:45:00;11.73;;;6.75;;
23304;SDS011;11821;51.456;8.844;2023-08-17T00:47:28;9.57;;;7.15;;
23304;SDS011;11821;51.456;8.844;2023-08-17T00:49:55;7.90;;;6.90;;
23304;SDS011;11821;51.456;8.844;2023-08-17T00:52:22;9.18;;;6.55;;
23304;SDS011;11821;51.456;8.844;2023-08-17T00:54:49;8.65;;;7.72;;
23304;SDS011;11821;51.456;8.844;2023-08-17T00:57:16;7.93;;;6.65;;
23304;SDS011;11821;51.456;8.844;2023-08-17T00:59:43;7.82;;;7.03;;
23304;SDS011;11821;51.456;8.844;2023-08-17T01:02:10;10.98;;;7.28;;
23304;SDS011;11821;51.456;8.844;2023-08-17T01:04:36;6.93;;;6.32;;
23304;SDS011;11821;51.456;8.844;2023-08-17T01:07:06;9.95;;;6.85;;
23304;SDS011;11821;51.456;8.844;2023-08-17T01:09:33;9.30;;;7.05;;
23304;SDS011;11821;51.456;8.844;2023-08-17T01:12:02;9.65;;;7.07;;
23304;SDS011;11821;51.456;8.844;2023-08-17T01:19:58;8.15;;;6.03;;
23304;SDS011;11821;51.456;8.844;2023-08-17T01:22:24;11.85;;;7.93;;
23304;SDS011;11821;51.456;8.844;2023-08-17T01:24:55;11.48;;;7.45;;
23304;SDS011;11821;51.456;8.844;2023-08-17T01:27:24;12.88;;;8.73;;
23304;SDS011;11821;51.456;8.844;2023-08-17T01:29:51;16.00;;;8.30;;
23304;SDS011;11821;51.456;8.844;2023-08-17T01:32:27;11.25;;;8.15;;
23304;SDS011;11821;51.456;8.844;2023-08-17T01:35:01;13.50;;;8.07;;
23304;SDS011;11821;51.456;8.844;2023-08-17T01:37:31;12.68;;;8.68;;
23304;SDS011;11821;51.456;8.844;2023-08-17T01:39:59;13.20;;;9.02;;
23304;SDS011;11821;51.456;8.844;2023-08-17T01:42:26;15.00;;;8.82;;
23304;SDS011;11821;51.456;8.844;2023-08-17T01:44:54;9.20;;;8.27;;
23304;SDS011;11821;51.456;8.844;2023-08-17T01:47:23;13.38;;;8.50;;
23304;SDS011;11821;51.456;8.844;2023-08-17T01:49:50;10.30;;;8.45;;
23304;SDS011;11821;51.456;8.844;2023-08-17T01:52:16;9.50;;;8.48;;
23304;SDS011;11821;51.456;8.844;2023-08-17T01:54:43;11.30;;;8.75;;
23304;SDS011;11821;51.456;8.844;2023-08-17T01:57:09;9.82;;;8.80;;
23304;SDS011;11821;51.456;8.844;2023-08-17T01:59:36;11.40;;;8.57;;
23304;SDS011;11821;51.456;8.844;2023-08-17T02:02:03;10.35;;;9.35;;
23304;SDS011;11821;51.456;8.844;2023-08-17T02:04:30;10.23;;;8.60;;
23304;SDS011;11821;51.456;8.844;2023-08-17T02:06:56;6.50;;;5.93;;
23304;SDS011;11821;51.456;8.844;2023-08-17T02:09:23;9.18;;;8.27;;
23304;SDS011;11821;51.456;8.844;2023-08-17T02:11:49;8.95;;;8.15;;
23304;SDS011;11821;51.456;8.844;2023-08-17T02:14:16;13.40;;;8.77;;
23304;SDS011;11821;51.456;8.844;2023-08-17T02:16:42;14.15;;;8.90;;
23304;SDS011;11821;51.456;8.844;2023-08-17T02:19:11;8.30;;;7.43;;
23304;SDS011;11821;51.456;8.844;2023-08-17T02:21:37;14.05;;;8.50;;
23304;SDS011;11821;51.456;8.844;2023-08-17T02:24:04;13.65;;;9.45;;
23304;SDS011;11821;51.456;8.844;2023-08-17T02:26:31;9.32;;;8.45;;
23304;SDS011;11821;51.456;8.844;2023-08-17T02:28:57;8.10;;;6.25;;
23304;SDS011;11821;51.456;8.844;2023-08-17T02:31:24;11.75;;;9.32;;
23304;SDS011;11821;51.456;8.844;2023-08-17T02:33:50;10.80;;;8.18;;
23304;SDS011;11821;51.456;8.844;2023-08-17T02:36:17;12.30;;;7.60;;
23304;SDS011;11821;51.456;8.844;2023-08-17T02:38:43;11.65;;;9.18;;
23304;SDS011;11821;51.456;8.844;2023-08-17T02:41:10;9.45;;;8.38;;
23304;SDS011;11821;51.456;8.844;2023-08-17T02:43:36;14.52;;;9.50;;
23304;SDS011;11821;51.456;8.844;2023-08-17T02:46:03;8.70;;;6.38;;
23304;SDS011;11821;51.456;8.844;2023-08-17T02:48:33;12.70;;;9.20;;
23304;SDS011;11821;51.456;8.844;2023-08-17T02:50:59;14.38;;;10.00;;
23304;SDS011;11821;51.456;8.844;2023-08-17T02:53:26;14.15;;;9.93;;
23304;SDS011;11821;51.456;8.844;2023-08-17T02:55:52;5.65;;;4.95;;
23304;SDS011;11821;51.456;8.844;2023-08-17T02:58:19;7.22;;;6.53;;
23304;SDS011;11821;51.456;8.844;2023-08-17T03:00:45;12.88;;;8.52;;
23304;SDS011;11821;51.456;8.844;2023-08-17T03:03:13;12.32;;;10.00;;
23304;SDS011;11821;51.456;8.844;2023-08-17T03:05:40;5.05;;;4.55;;
23304;SDS011;11821;51.456;8.844;2023-08-17T03:08:06;10.15;;;7.13;;
23304;SDS011;11821;51.456;8.844;2023-08-17T03:10:33;18.17;;;9.00;;
23304;SDS011;11821;51.456;8.844;2023-08-17T03:13:00;9.48;;;8.57;;
23304;SDS011;11821;51.456;8.844;2023-08-17T03:15:27;6.03;;;4.60;;
23304;SDS011;11821;51.456;8.844;2023-08-17T03:17:53;13.00;;;9.38;;
23304;SDS011;11821;51.456;8.844;2023-08-17T03:20:20;13.23;;;10.18;;
23304;SDS011;11821;51.456;8.844;2023-08-17T03:22:46;19.63;;;10.88;;
23304;SDS011;11821;51.456;8.844;2023-08-17T03:25:13;13.32;;;9.85;;
23304;SDS011;11821;51.456;8.844;2023-08-17T03:27:41;12.32;;;10.52;;
23304;SDS011;11821;51.456;8.844;2023-08-17T03:30:08;14.45;;;10.75;;
23304;SDS011;11821;51.456;8.844;2023-08-17T03:32:35;8.15;;;7.40;;
23304;SDS011;11821;51.456;8.844;2023-08-17T03:35:02;12.00;;;10.90;;
23304;SDS011;11821;51.456;8.844;2023-08-17T03:37:29;12.32;;;10.13;;
23304;SDS011;11821;51.456;8.844;2023-08-17T03:39:55;15.63;;;11.48;;
23304;SDS011;11821;51.456;8.844;2023-08-17T03:42:22;6.25;;;5.72;;
23304;SDS011;11821;51.456;8.844;2023-08-17T03:44:49;13.40;;;11.23;;
23304;SDS011;11821;51.456;8.844;2023-08-17T03:47:16;11.27;;;10.27;;
23304;SDS011;11821;51.456;8.844;2023-08-17T03:49:42;8.40;;;7.35;;
23304;SDS011;11821;51.456;8.844;2023-08-17T03:52:09;12.25;;;11.05;;
23304;SDS011;11821;51.456;8.844;2023-08-17T03:54:36;13.98;;;11.77;;
23304;SDS011;11821;51.456;8.844;2023-08-17T03:57:02;13.35;;;12.07;;
23304;SDS011;11821;51.456;8.844;2023-08-17T03:59:32;15.77;;;13.23;;
23304;SDS011;11821;51.456;8.844;2023-08-17T04:01:59;12.05;;;10.63;;
23304;SDS011;11821;51.456;8.844;2023-08-17T04:04:25;17.58;;;13.07;;
23304;SDS011;11821;51.456;8.844;2023-08-17T04:06:55;15.10;;;13.48;;
23304;SDS011;11821;51.456;8.844;2023-08-17T04:09:22;13.93;;;12.35;;
23304;SDS011;11821;51.456;8.844;2023-08-17T04:11:49;17.70;;;14.05;;
23304;SDS011;11821;51.456;8.844;2023-08-17T04:14:15;14.98;;;13.60;;
23304;SDS011;11821;51.456;8.844;2023-08-17T04:16:42;22.23;;;14.88;;
23304;SDS011;11821;51.456;8.844;2023-08-17T04:19:09;16.85;;;14.60;;
23304;SDS011;11821;51.456;8.844;2023-08-17T04:21:35;15.63;;;14.13;;
23304;SDS011;11821;51.456;8.844;2023-08-17T04:24:02;16.45;;;14.40;;
23304;SDS011;11821;51.456;8.844;2023-08-17T04:26:29;15.63;;;13.88;;
23304;SDS011;11821;51.456;8.844;2023-08-17T04:28:56;19.05;;;15.77;;
23304;SDS011;11821;51.456;8.844;2023-08-17T04:31:23;16.67;;;14.57;;
23304;SDS011;11821;51.456;8.844;2023-08-17T04:33:57;18.45;;;16.23;;
23304;SDS011;11821;51.456;8.844;2023-08-17T04:36:23;24.95;;;16.33;;
23304;SDS011;11821;51.456;8.844;2023-08-17T04:38:50;17.70;;;15.90;;
23304;SDS011;11821;51.456;8.844;2023-08-17T04:41:17;18.85;;;15.88;;
23304;SDS011;11821;51.456;8.844;2023-08-17T04:43:44;19.60;;;16.33;;
23304;SDS011;11821;51.456;8.844;2023-08-17T04:46:12;20.65;;;16.85;;
23304;SDS011;11821;51.456;8.844;2023-08-17T04:48:40;9.52;;;8.25;;
23304;SDS011;11821;51.456;8.844;2023-08-17T04:51:07;16.65;;;14.73;;
23304;SDS011;11821;51.456;8.844;2023-08-17T04:53:34;23.40;;;16.10;;
23304;SDS011;11821;51.456;8.844;2023-08-17T04:56:02;28.10;;;17.45;;
23304;SDS011;11821;51.456;8.844;2023-08-17T04:58:29;25.40;;;17.45;;
23304;SDS011;11821;51.456;8.844;2023-08-17T05:00:57;26.15;;;19.00;;
23304;SDS011;11821;51.456;8.844;2023-08-17T05:03:23;20.73;;;17.52;;
23304;SDS011;11821;51.456;8.844;2023-08-17T05:05:52;21.20;;;17.10;;
23304;SDS011;11821;51.456;8.844;2023-08-17T05:08:19;24.70;;;18.10;;
23304;SDS011;11821;51.456;8.844;2023-08-17T05:10:47;28.55;;;18.50;;
23304;SDS011;11821;51.456;8.844;2023-08-17T05:13:14;25.13;;;17.48;;
23304;SDS011;11821;51.456;8.844;2023-08-17T05:15:41;21.10;;;17.27;;
23304;SDS011;11821;51.456;8.844;2023-08-17T05:18:10;21.40;;;16.88;;
23304;SDS011;11821;51.456;8.844;2023-08-17T05:20:37;25.13;;;17.10;;
23304;SDS011;11821;51.456;8.844;2023-08-17T05:23:04;23.90;;;16.92;;
23304;SDS011;11821;51.456;8.844;2023-08-17T05:25:31;23.65;;;18.30;;
23304;SDS011;11821;51.456;8.844;2023-08-17T05:27:57;22.65;;;17.42;;
23304;SDS011;11821;51.456;8.844;2023-08-17T05:30:24;30.73;;;18.25;;
23304;SDS011;11821;51.456;8.844;2023-08-17T05:32:51;27.83;;;17.95;;
23304;SDS011;11821;51.456;8.844;2023-08-17T05:35:18;24.95;;;16.60;;
23304;SDS011;11821;51.456;8.844;2023-08-17T05:37:44;25.08;;;16.92;;
23304;SDS011;11821;51.456;8.844;2023-08-17T05:40:11;24.70;;;18.55;;
23304;SDS011;11821;51.456;8.844;2023-08-17T05:42:38;18.80;;;16.45;;
23304;SDS011;11821;51.456;8.844;2023-08-17T05:45:05;26.60;;;17.02;;
23304;SDS011;11821;51.456;8.844;2023-08-17T05:47:31;31.88;;;18.02;;
23304;SDS011;11821;51.456;8.844;2023-08-17T05:49:58;21.60;;;17.88;;
23304;SDS011;11821;51.456;8.844;2023-08-17T05:52:25;17.00;;;15.32;;
23304;SDS011;11821;51.456;8.844;2023-08-17T05:54:51;22.52;;;17.85;;
23304;SDS011;11821;51.456;8.844;2023-08-17T05:57:18;30.73;;;19.05;;
23304;SDS011;11821;51.456;8.844;2023-08-17T05:59:44;26.02;;;20.08;;
23304;SDS011;11821;51.456;8.844;2023-08-17T06:02:11;30.30;;;19.67;;
23304;SDS011;11821;51.456;8.844;2023-08-17T06:04:37;22.63;;;16.48;;
23304;SDS011;11821;51.456;8.844;2023-08-17T06:07:04;37.85;;;21.27;;
23304;SDS011;11821;51.456;8.844;2023-08-17T06:09:30;30.02;;;20.60;;
23304;SDS011;11821;51.456;8.844;2023-08-17T06:11:57;38.47;;;21.48;;
23304;SDS011;11821;51.456;8.844;2023-08-17T06:14:23;37.20;;;20.45;;
23304;SDS011;11821;51.456;8.844;2023-08-17T06:16:50;33.53;;;20.45;;
23304;SDS011;11821;51.456;8.844;2023-08-17T06:19:16;35.55;;;19.23;;
23304;SDS011;11821;51.456;8.844;2023-08-17T06:21:43;33.25;;;20.35;;
23304;SDS011;11821;51.456;8.844;2023-08-17T06:24:09;29.80;;;17.30;;
23304;SDS011;11821;51.456;8.844;2023-08-17T06:26:36;35.60;;;20.33;;
23304;SDS011;11821;51.456;8.844;2023-08-17T06:29:03;42.03;;;21.20;;
23304;SDS011;11821;51.456;8.844;2023-08-17T06:31:29;36.15;;;20.65;;
23304;SDS011;11821;51.456;8.844;2023-08-17T06:33:56;31.83;;;18.50;;
23304;SDS011;11821;51.456;8.844;2023-08-17T06:36:22;35.05;;;20.60;;
23304;SDS011;11821;51.456;8.844;2023-08-17T06:38:49;36.50;;;19.42;;
23304;SDS011;11821;51.456;8.844;2023-08-17T06:41:16;34.67;;;20.35;;
23304;SDS011;11821;51.456;8.844;2023-08-17T06:43:42;31.63;;;19.63;;
23304;SDS011;11821;51.456;8.844;2023-08-17T06:46:09;31.77;;;20.48;;
23304;SDS011;11821;51.456;8.844;2023-08-17T06:48:36;33.67;;;20.02;;
23304;SDS011;11821;51.456;8.844;2023-08-17T06:51:02;29.85;;;17.98;;
23304;SDS011;11821;51.456;8.844;2023-08-17T06:53:30;29.02;;;17.45;;
23304;SDS011;11821;51.456;8.844;2023-08-17T06:55:56;29.65;;;18.85;;
23304;SDS011;11821;51.456;8.844;2023-08-17T06:58:23;32.88;;;19.48;;
23304;SDS011;11821;51.456;8.844;2023-08-17T07:00:50;30.05;;;17.42;;
23304;SDS011;11821;51.456;8.844;2023-08-17T07:03:16;24.05;;;15.93;;
23304;SDS011;11821;51.456;8.844;2023-08-17T07:05:43;19.63;;;15.63;;
23304;SDS011;11821;51.456;8.844;2023-08-17T07:08:10;21.30;;;14.50;;
23304;SDS011;11821;51.456;8.844;2023-08-17T07:10:36;23.50;;;15.80;;
23304;SDS011;11821;51.456;8.844;2023-08-17T07:13:03;16.77;;;14.57;;
23304;SDS011;11821;51.456;8.844;2023-08-17T07:15:30;15.52;;;13.80;;
23304;SDS011;11821;51.456;8.844;2023-08-17T07:17:56;16.10;;;13.05;;
23304;SDS011;11821;51.456;8.844;2023-08-17T07:20:23;14.38;;;11.43;;
23304;SDS011;11821;51.456;8.844;2023-08-17T07:22:49;9.50;;;8.43;;
23304;SDS011;11821;51.456;8.844;2023-08-17T07:25:16;11.80;;;10.68;;
23304;SDS011;11821;51.456;8.844;2023-08-17T07:27:43;12.00;;;9.50;;
23304;SDS011;11821;51.456;8.844;2023-08-17T07:30:09;10.73;;;9.63;;
23304;SDS011;11821;51.456;8.844;2023-08-17T07:32:36;13.40;;;10.23;;
23304;SDS011;11821;51.456;8.844;2023-08-17T07:35:03;11.20;;;10.10;;
23304;SDS011;11821;51.456;8.844;2023-08-17T07:37:29;9.18;;;8.00;;
23304;SDS011;11821;51.456;8.844;2023-08-17T07:39:59;8.93;;;7.95;;
23304;SDS011;11821;51.456;8.844;2023-08-17T07:42:25;9.20;;;8.32;;
23304;SDS011;11821;51.456;8.844;2023-08-17T07:44:52;10.98;;;9.52;;
23304;SDS011;11821;51.456;8.844;2023-08-17T07:47:19;8.88;;;7.97;;
23304;SDS011;11821;51.456;8.844;2023-08-17T07:49:45;9.30;;;8.20;;
23304;SDS011;11821;51.456;8.844;2023-08-17T07:52:11;8.98;;;7.50;;
23304;SDS011;11821;51.456;8.844;2023-08-17T07:54:37;8.40;;;7.47;;
23304;SDS011;11821;51.456;8.844;2023-08-17T07:57:04;9.43;;;7.97;;
23304;SDS011;11821;51.456;8.844;2023-08-17T07:59:30;7.93;;;7.22;;
23304;SDS011;11821;51.456;8.844;2023-08-17T08:01:57;8.68;;;7.43;;
23304;SDS011;11821;51.456;8.844;2023-08-17T08:04:23;9.40;;;8.43;;
23304;SDS011;11821;51.456;8.844;2023-08-17T08:06:49;11.48;;;6.88;;
23304;SDS011;11821;51.456;8.844;2023-08-17T08:09:15;8.60;;;7.78;;
23304;SDS011;11821;51.456;8.844;2023-08-17T08:11:42;9.85;;;8.10;;
23304;SDS011;11821;51.456;8.844;2023-08-17T08:14:08;8.23;;;7.05;;
23304;SDS011;11821;51.456;8.844;2023-08-17T08:16:34;9.68;;;7.05;;
23304;SDS011;11821;51.456;8.844;2023-08-17T08:19:01;9.80;;;6.78;;
23304;SDS011;11821;51.456;8.844;2023-08-17T08:21:27;8.18;;;7.05;;
23304;SDS011;11821;51.456;8.844;2023-08-17T08:23:54;8.82;;;6.75;;
23304;SDS011;11821;51.456;8.844;2023-08-17T08:26:20;7.70;;;6.93;;
23304;SDS011;11821;51.456;8.844;2023-08-17T08:28:46;8.43;;;6.43;;
23304;SDS011;11821;51.456;8.844;2023-08-17T08:31:12;7.68;;;6.93;;
23304;SDS011;11821;51.456;8.844;2023-08-17T08:33:39;7.30;;;5.85;;
23304;SDS011;11821;51.456;8.844;2023-08-17T08:36:05;6.57;;;5.90;;
23304;SDS011;11821;51.456;8.844;2023-08-17T08:38:32;6.55;;;5.85;;
23304;SDS011;11821;51.456;8.844;2023-08-17T08:40:58;8.98;;;6.18;;
23304;SDS011;11821;51.456;8.844;2023-08-17T08:43:24;8.35;;;5.95;;
23304;SDS011;11821;51.456;8.844;2023-08-17T08:45:51;8.45;;;6.13;;
23304;SDS011;11821;51.456;8.844;2023-08-17T08:48:18;7.18;;;5.68;;
23304;SDS011;11821;51.456;8.844;2023-08-17T08:50:45;6.50;;;5.90;;
23304;SDS011;11821;51.456;8.844;2023-08-17T08:53:15;6.90;;;5.85;;
23304;SDS011;11821;51.456;8.844;2023-08-17T08:55:52;6.75;;;6.05;;
23304;SDS011;11821;51.456;8.844;2023-08-17T08:58:22;7.10;;;6.40;;
23304;SDS011;11821;51.456;8.844;2023-08-17T09:00:49;6.57;;;5.72;;
23304;SDS011;11821;51.456;8.844;2023-08-17T09:03:15;8.85;;;6.93;;
23304;SDS011;11821;51.456;8.844;2023-08-17T09:05:44;6.65;;;6.10;;
23304;SDS011;11821;51.456;8.844;2023-08-17T09:08:14;7.00;;;6.32;;
23304;SDS011;11821;51.456;8.844;2023-08-17T09:10:41;7.28;;;6.57;;
23304;SDS011;11821;51.456;8.844;2023-08-17T09:13:08;8.25;;;6.40;;
23304;SDS011;11821;51.456;8.844;2023-08-17T09:15:35;8.27;;;6.63;;
23304;SDS011;11821;51.456;8.844;2023-08-17T09:18:01;7.85;;;6.13;;
23304;SDS011;11821;51.456;8.844;2023-08-17T09:20:38;9.60;;;6.63;;
23304;SDS011;11821;51.456;8.844;2023-08-17T09:23:12;7.30;;;6.40;;
23304;SDS011;11821;51.456;8.844;2023-08-17T09:25:43;7.78;;;6.03;;
23304;SDS011;11821;51.456;8.844;2023-08-17T09:28:11;4.40;;;4.00;;
23304;SDS011;11821;51.456;8.844;2023-08-17T09:30:59;7.07;;;6.00;;
23304;SDS011;11821;51.456;8.844;2023-08-17T09:33:28;6.40;;;5.75;;
23304;SDS011;11821;51.456;8.844;2023-08-17T09:35:55;6.65;;;5.93;;
23304;SDS011;11821;51.456;8.844;2023-08-17T09:38:22;7.05;;;6.35;;
23304;SDS011;11821;51.456;8.844;2023-08-17T09:40:49;5.85;;;5.32;;
23304;SDS011;11821;51.456;8.844;2023-08-17T09:43:16;5.60;;;5.10;;
23304;SDS011;11821;51.456;8.844;2023-08-17T09:45:43;5.72;;;5.22;;
23304;SDS011;11821;51.456;8.844;2023-08-17T09:48:11;5.13;;;4.13;;
23304;SDS011;11821;51.456;8.844;2023-08-17T09:50:42;4.38;;;4.07;;
23304;SDS011;11821;51.456;8.844;2023-08-17T09:53:18;4.78;;;4.20;;
23304;SDS011;11821;51.456;8.844;2023-08-17T09:55:45;4.80;;;4.07;;
23304;SDS011;11821;51.456;8.844;2023-08-17T09:58:12;4.65;;;3.80;;
23304;SDS011;11821;51.456;8.844;2023-08-17T10:00:49;4.97;;;4.57;;
23304;SDS011;11821;51.456;8.844;2023-08-17T10:03:16;4.13;;;3.70;;
23304;SDS011;11821;51.456;8.844;2023-08-17T10:05:47;4.28;;;3.88;;
23304;SDS011;11821;51.456;8.844;2023-08-17T10:08:18;3.85;;;3.55;;
23304;SDS011;11821;51.456;8.844;2023-08-17T10:10:46;3.28;;;3.08;;
23304;SDS011;11821;51.456;8.844;2023-08-17T10:13:17;3.00;;;2.80;;
23304;SDS011;11821;51.456;8.844;2023-08-17T10:21:13;3.03;;;2.83;;
23304;SDS011;11821;51.456;8.844;2023-08-17T10:23:44;2.88;;;2.50;;
23304;SDS011;11821;51.456;8.844;2023-08-17T10:26:11;4.68;;;3.53;;
23304;SDS011;11821;51.456;8.844;2023-08-17T10:28:38;2.72;;;2.53;;
23304;SDS011;11821;51.456;8.844;2023-08-17T10:31:05;3.22;;;2.92;;
23304;SDS011;11821;51.456;8.844;2023-08-17T10:33:32;5.35;;;3.67;;
23304;SDS011;11821;51.456;8.844;2023-08-17T10:36:00;3.08;;;2.88;;
23304;SDS011;11821;51.456;8.844;2023-08-17T10:38:26;3.78;;;3.47;;
23304;SDS011;11821;51.456;8.844;2023-08-17T10:41:09;5.70;;;4.07;;
23304;SDS011;11821;51.456;8.844;2023-08-17T10:46:31;3.75;;;3.45;;
23304;SDS011;11821;51.456;8.844;2023-08-17T10:49:03;4.45;;;4.05;;
23304;SDS011;11821;51.456;8.844;2023-08-17T10:51:31;5.75;;;3.85;;
23304;SDS011;11821;51.456;8.844;2023-08-17T10:53:59;4.50;;;4.07;;
23304;SDS011;11821;51.456;8.844;2023-08-17T10:56:29;5.32;;;4.80;;
23304;SDS011;11821;51.456;8.844;2023-08-17T10:59:01;5.20;;;4.80;;
23304;SDS011;11821;51.456;8.844;2023-08-17T11:01:32;3.17;;;2.97;;
23304;SDS011;11821;51.456;8.844;2023-08-17T11:04:09;2.33;;;2.13;;
23304;SDS011;11821;51.456;8.844;2023-08-17T11:06:36;3.80;;;3.50;;
23304;SDS011;11821;51.456;8.844;2023-08-17T11:09:06;4.40;;;4.10;;
23304;SDS011;11821;51.456;8.844;2023-08-17T11:11:33;3.42;;;3.13;;
23304;SDS011;11821;51.456;8.844;2023-08-17T11:13:59;4.65;;;4.35;;
23304;SDS011;11821;51.456;8.844;2023-08-17T11:16:26;4.47;;;4.07;;
23304;SDS011;11821;51.456;8.844;2023-08-17T11:18:52;4.45;;;4.07;;
23304;SDS011;11821;51.456;8.844;2023-08-17T11:21:22;5.05;;;4.65;;
23304;SDS011;11821;51.456;8.844;2023-08-17T11:23:49;4.65;;;4.25;;
23304;SDS011;11821;51.456;8.844;2023-08-17T11:26:16;5.07;;;4.63;;
23304;SDS011;11821;51.456;8.844;2023-08-17T11:28:43;4.53;;;4.22;;
23304;SDS011;11821;51.456;8.844;2023-08-17T11:31:10;5.53;;;5.13;;
23304;SDS011;11821;51.456;8.844;2023-08-17T11:33:37;4.65;;;4.25;;
23304;SDS011;11821;51.456;8.844;2023-08-17T11:36:06;5.18;;;3.65;;
23304;SDS011;11821;51.456;8.844;2023-08-17T11:38:36;5.25;;;4.78;;
23304;SDS011;11821;51.456;8.844;2023-08-17T11:41:03;4.47;;;4.07;;
23304;SDS011;11821;51.456;8.844;2023-08-17T11:43:31;5.50;;;5.00;;
23304;SDS011;11821;51.456;8.844;2023-08-17T11:45:59;6.20;;;5.68;;
23304;SDS011;11821;51.456;8.844;2023-08-17T11:48:26;5.40;;;4.50;;
23304;SDS011;11821;51.456;8.844;2023-08-17T11:50:53;5.03;;;4.53;;
23304;SDS011;11821;51.456;8.844;2023-08-17T11:53:23;4.28;;;3.97;;
23304;SDS011;11821;51.456;8.844;2023-08-17T11:55:50;4.32;;;3.97;;
23304;SDS011;11821;51.456;8.844;2023-08-17T11:58:16;4.97;;;4.57;;
23304;SDS011;11821;51.456;8.844;2023-08-17T12:00:43;5.40;;;4.90;;
23304;SDS011;11821;51.456;8.844;2023-08-17T12:03:14;5.28;;;4.82;;
23304;SDS011;11821;51.456;8.844;2023-08-17T12:05:43;5.18;;;4.78;;
23304;SDS011;11821;51.456;8.844;2023-08-17T12:08:12;4.80;;;3.90;;
23304;SDS011;11821;51.456;8.844;2023-08-17T12:10:42;4.20;;;3.83;;
23304;SDS011;11821;51.456;8.844;2023-08-17T12:13:11;3.28;;;3.08;;
23304;SDS011;11821;51.456;8.844;2023-08-17T12:15:38;3.47;;;3.25;;
23304;SDS011;11821;51.456;8.844;2023-08-17T12:18:05;3.20;;;3.00;;
23304;SDS011;11821;51.456;8.844;2023-08-17T12:20:32;6.93;;;4.70;;
23304;SDS011;11821;51.456;8.844;2023-08-17T12:23:01;3.33;;;3.03;;
23304;SDS011;11821;51.456;8.844;2023-08-17T12:25:28;3.22;;;2.97;;
23304;SDS011;11821;51.456;8.844;2023-08-17T12:27:57;2.30;;;2.15;;
23304;SDS011;11821;51.456;8.844;2023-08-17T12:32:51;4.22;;;3.92;;
23304;SDS011;11821;51.456;8.844;2023-08-17T12:35:17;4.55;;;3.75;;
23304;SDS011;11821;51.456;8.844;2023-08-17T12:37:47;5.05;;;2.55;;
23304;SDS011;11821;51.456;8.844;2023-08-17T12:40:14;2.88;;;2.67;;
23304;SDS011;11821;51.456;8.844;2023-08-17T12:42:41;3.00;;;2.80;;
23304;SDS011;11821;51.456;8.844;2023-08-17T12:45:07;6.82;;;3.92;;
23304;SDS011;11821;51.456;8.844;2023-08-17T12:47:34;5.38;;;3.35;;
23304;SDS011;11821;51.456;8.844;2023-08-17T12:50:00;3.22;;;2.92;;
23304;SDS011;11821;51.456;8.844;2023-08-17T12:52:29;3.25;;;2.90;;
23304;SDS011;11821;51.456;8.844;2023-08-17T12:54:55;4.70;;;3.08;;
23304;SDS011;11821;51.456;8.844;2023-08-17T12:57:22;3.95;;;3.38;;
23304;SDS011;11821;51.456;8.844;2023-08-17T12:59:48;5.07;;;3.95;;
23304;SDS011;11821;51.456;8.844;2023-08-17T13:02:15;4.40;;;4.00;;
23304;SDS011;11821;51.456;8.844;2023-08-17T13:04:41;4.55;;;4.22;;
23304;SDS011;11821;51.456;8.844;2023-08-17T13:07:08;4.82;;;4.43;;
23304;SDS011;11821;51.456;8.844;2023-08-17T13:09:34;5.47;;;4.38;;
23304;SDS011;11821;51.456;8.844;2023-08-17T13:12:01;5.57;;;5.18;;
23304;SDS011;11821;51.456;8.844;2023-08-17T13:14:27;6.50;;;6.00;;
23304;SDS011;11821;51.456;8.844;2023-08-17T13:16:54;6.95;;;6.38;;
23304;SDS011;11821;51.456;8.844;2023-08-17T13:19:20;7.65;;;6.93;;
23304;SDS011;11821;51.456;8.844;2023-08-17T13:21:47;7.53;;;6.82;;
23304;SDS011;11821;51.456;8.844;2023-08-17T13:24:14;7.55;;;6.85;;
23304;SDS011;11821;51.456;8.844;2023-08-17T13:26:40;7.88;;;7.07;;
23304;SDS011;11821;51.456;8.844;2023-08-17T13:29:07;6.68;;;6.07;;
23304;SDS011;11821;51.456;8.844;2023-08-17T13:31:35;5.90;;;5.32;;
23304;SDS011;11821;51.456;8.844;2023-08-17T13:34:01;8.27;;;6.55;;
23304;SDS011;11821;51.456;8.844;2023-08-17T13:36:28;6.68;;;6.07;;
23304;SDS011;11821;51.456;8.844;2023-08-17T13:38:55;7.10;;;6.43;;
23304;SDS011;11821;51.456;8.844;2023-08-17T13:41:21;5.63;;;5.13;;
23304;SDS011;11821;51.456;8.844;2023-08-17T13:43:50;6.38;;;5.78;;
23304;SDS011;11821;51.456;8.844;2023-08-17T13:46:16;7.43;;;6.85;;
23304;SDS011;11821;51.456;8.844;2023-08-17T13:48:43;6.55;;;5.95;;
23304;SDS011;11821;51.456;8.844;2023-08-17T13:51:09;6.88;;;6.38;;
23304;SDS011;11821;51.456;8.844;2023-08-17T13:53:37;6.07;;;5.47;;
23304;SDS011;11821;51.456;8.844;2023-08-17T13:56:03;6.68;;;6.07;;
23304;SDS011;11821;51.456;8.844;2023-08-17T13:58:30;7.13;;;6.53;;
23304;SDS011;11821;51.456;8.844;2023-08-17T14:00:56;7.97;;;7.00;;
23304;SDS011;11821;51.456;8.844;2023-08-17T14:03:23;6.78;;;6.25;;
23304;SDS011;11821;51.456;8.844;2023-08-17T14:05:49;6.80;;;6.10;;
23304;SDS011;11821;51.456;8.844;2023-08-17T14:08:16;7.00;;;6.40;;
23304;SDS011;11821;51.456;8.844;2023-08-17T14:10:43;6.35;;;5.85;;
23304;SDS011;11821;51.456;8.844;2023-08-17T14:13:09;6.05;;;5.55;;
23304;SDS011;11821;51.456;8.844;2023-08-17T14:15:36;7.28;;;6.50;;
23304;SDS011;11821;51.456;8.844;2023-08-17T14:18:02;6.53;;;5.95;;
23304;SDS011;11821;51.456;8.844;2023-08-17T14:20:32;6.30;;;5.80;;
23304;SDS011;11821;51.456;8.844;2023-08-17T14:22:59;5.70;;;5.20;;
23304;SDS011;11821;51.456;8.844;2023-08-17T14:25:25;6.65;;;6.05;;
23304;SDS011;11821;51.456;8.844;2023-08-17T14:27:53;5.95;;;5.45;;
23304;SDS011;11821;51.456;8.844;2023-08-17T14:30:20;6.57;;;5.60;;
23304;SDS011;11821;51.456;8.844;2023-08-17T14:32:46;6.45;;;5.38;;
23304;SDS011;11821;51.456;8.844;2023-08-17T14:35:13;7.57;;;6.88;;
23304;SDS011;11821;51.456;8.844;2023-08-17T14:37:39;6.43;;;5.82;;
23304;SDS011;11821;51.456;8.844;2023-08-17T14:40:06;6.63;;;6.05;;
23304;SDS011;11821;51.456;8.844;2023-08-17T14:42:33;5.80;;;5.40;;
23304;SDS011;11821;51.456;8.844;2023-08-17T14:44:59;5.40;;;5.00;;
23304;SDS011;11821;51.456;8.844;2023-08-17T14:47:26;6.00;;;5.50;;
23304;SDS011;11821;51.456;8.844;2023-08-17T14:49:53;4.57;;;4.18;;
23304;SDS011;11821;51.456;8.844;2023-08-17T14:52:21;5.28;;;4.22;;
23304;SDS011;11821;51.456;8.844;2023-08-17T14:54:48;4.82;;;4.50;;